Time;durP1;ratioP1;P1;durP2;ratioP2;P2;SDS_P1;SDS_P2;PMS_P1;PMS_P2;Temp;Humidity;BMP_temperature;BMP_pressure;BME280_temperature;BME280_humidity;BME280_pressure;Samples;Min_cycle;Max_cycle;Signal;HPM_P1;HPM_P2
2021/05/10 00:00:43;;;;;;;;;;;;;;;;;;1475674;40;7931;-61
2021/05/10 00:01:45;;;;;;;;;;;;;;;;;;1474800;40;7104;-62
2021/05/10 00:02:47;;;;;;;;;;;;;;;;;;1475047;40;7051;-62
2021/05/10 00:03:49;;;;;;;;;;;;;;;;;;1475031;40;7012;-62
2021/05/10 00:04:51;;;;;;;;;;;;;;;;;;1475263;40;6996;-62
2021/05/10 00:05:53;;;;;;;;;;;;;;;;;;1475160;40;7000;-61
2021/05/10 00:06:55;;;;;;;;;;;;;;;;;;1475032;40;6995;-62
2021/05/10 00:07:57;;;;;;;;;;;;;;;;;;1475344;40;7127;-60
2021/05/10 00:08:59;;;;;;;;;;;;;;;;;;1475320;40;7508;-63
2021/05/10 00:10:01;;;;;;;;;;;;;;;;;;1475373;40;7004;-62
2021/05/10 00:11:03;;;;;;;;;;;;;;;;;;1474855;40;7027;-62
2021/05/10 00:12:05;;;;;;;;;;;;;;;;;;1475217;40;7121;-61
2021/05/10 00:13:08;;;;;;;;;;;;;;;;;;1474955;40;7044;-63
2021/05/10 00:14:11;;;;;;;;;;;;;;;;;;1475005;40;7003;-62
2021/05/10 00:15:14;;;;;;;;;;;;;;;;;;1474925;40;7116;-60
2021/05/10 00:16:16;;;;;;;;;;;;;;;;;;1478355;40;7000;-63
2021/05/10 00:17:18;;;;;;;;;;;;;;;;;;1479308;40;7117;-62
2021/05/10 00:18:21;;;;;;;;;;;;;;;;;;1474894;40;7969;-60
2021/05/10 00:19:23;;;;;;;;;;;;;;;;;;1477669;40;7204;-61
2021/05/10 00:20:25;;;;;;;;;;;;;;;;;;1475641;40;7305;-62
2021/05/10 00:21:27;;;;;;;;;;;;;;;;;;1475947;40;7120;-62
2021/05/10 00:22:29;;;;;;;;;;;;;;;;;;1478743;40;7035;-61
2021/05/10 00:23:32;;;;;;;;;;;;;;;;;;1474602;40;7031;-60
2021/05/10 00:24:34;;;;;;;;;;;;;;;;;;1474593;40;7925;-60
2021/05/10 00:25:36;;;;;;;;;;;;;;;;;;1474892;40;7031;-62
2021/05/10 00:26:38;;;;;;;;;;;;;;;;;;1474951;40;6992;-61
2021/05/10 00:27:40;;;;;;;;;;;;;;;;;;1476586;40;7906;-62
2021/05/10 00:28:42;;;;;;;;;;;;;;;;;;1474565;40;7023;-61
2021/05/10 00:29:44;;;;;;;;;;;;;;;;;;1474612;40;7000;-61
2021/05/10 00:30:46;;;;;;;;;;;;;;;;;;1474491;40;7889;-62
2021/05/10 00:31:48;;;;;;;;;;;;;;;;;;1474858;40;7023;-62
2021/05/10 00:32:50;;;;;;;;;;;;;;;;;;1475234;40;7000;-60
2021/05/10 00:33:53;;;;;;;;;;;;;;;;;;1475441;40;8860;-60
2021/05/10 00:34:55;;;;;;;;;;;;;;;;;;1474480;40;7011;-61
2021/05/10 00:35:57;;;;;;;;;;;;;;;;;;1474626;40;6992;-61
2021/05/10 00:36:59;;;;;;;;;;;;;;;;;;1474912;40;7027;-62
2021/05/10 00:38:01;;;;;;;;;;;;;;;;;;1475052;40;7001;-62
2021/05/10 00:39:04;;;;;;;;;;;;;;;;;;1475043;40;8286;-61
2021/05/10 00:40:07;;;;;;;;;;;;;;;;;;1475167;40;6991;-61
2021/05/10 00:41:09;;;;;;;;;;;;;;;;;;1474894;40;8859;-61
2021/05/10 00:42:11;;;;;;;;;;;;;;;;;;1475080;40;6992;-61
2021/05/10 00:43:13;;;;;;;;;;;;;;;;;;1475066;40;7023;-62
2021/05/10 00:44:15;;;;;;;;;;;;;;;;;;1475082;40;7008;-62
2021/05/10 00:45:17;;;;;;;;;;;;;;;;;;1475040;40;7291;-62
2021/05/10 00:46:19;;;;;;;;;;;;;;;;;;1476165;40;7028;-59
2021/05/10 00:47:21;;;;;;;;;;;;;;;;;;1475010;40;7000;-61
2021/05/10 00:48:23;;;;;;;;;;;;;;;;;;1475205;40;7095;-61
2021/05/10 00:49:25;;;;;;;;;;;;;;;;;;1475476;40;7119;-60
2021/05/10 00:50:27;;;;;;;;;;;;;;;;;;1475264;40;6996;-62
2021/05/10 00:51:29;;;;;;;;;;;;;;;;;;1474741;40;6992;-62
2021/05/10 00:52:31;;;;;;;;;;;;;;;;;;1474997;40;7009;-60
2021/05/10 00:53:33;;;;;;;;;;;;;;;;;;1476268;40;6996;-61
2021/05/10 00:54:35;;;;;;;;;;;;;;;;;;1478960;40;8339;-61
2021/05/10 00:55:37;;;;;;;;;;;;;;;;;;1475142;40;8278;-60
2021/05/10 00:56:39;;;;;;;;;;;;;;;;;;1478526;40;7406;-61
2021/05/10 00:57:52;;;;;;;;;;;;;;;;;;1478461;40;7023;-63
2021/05/10 00:58:54;;;;;;;;;;;;;;;;;;1478844;40;6992;-61
2021/05/10 00:59:56;;;;;;;;;;;;;;;;;;1478877;40;7023;-61
2021/05/10 01:00:58;;;;;;;;;;;;;;;;;;1478988;40;6991;-61
2021/05/10 01:02:00;;;;;;;;;;;;;;;;;;1479105;40;7023;-62
2021/05/10 01:03:02;;;;;;;;;;;;;;;;;;1479259;40;6991;-61
2021/05/10 01:04:04;;;;;;;;;;;;;;;;;;1479416;40;7912;-62
2021/05/10 01:05:08;;;;;;;;;;;;;;;;;;1477858;40;7948;-62
2021/05/10 01:06:10;;;;;;;;;;;;;;;;;;1475016;40;7074;-61
2021/05/10 01:07:13;;;;;;;;;;;;;;;;;;1474700;40;7049;-60
2021/05/10 01:08:15;;;;;;;;;;;;;;;;;;1474883;40;7918;-63
2021/05/10 01:09:17;;;;;;;;;;;;;;;;;;1474822;40;7108;-61
2021/05/10 01:10:20;;;;;;;;;;;;;;;;;;1475141;40;7119;-62
2021/05/10 01:11:22;;;;;;;;;;;;;;;;;;1479199;40;7008;-61
2021/05/10 01:12:25;;;;;;;;;;;;;;;;;;1479116;40;7027;-61
2021/05/10 01:13:27;;;;;;;;;;;;;;;;;;1479296;40;7039;-62
2021/05/10 01:14:29;;;;;;;;;;;;;;;;;;1478993;40;6999;-61
2021/05/10 01:15:31;;;;;;;;;;;;;;;;;;1478688;40;8839;-60
2021/05/10 01:16:33;;;;;;;;;;;;;;;;;;1478664;40;7040;-62
2021/05/10 01:17:36;;;;;;;;;;;;;;;;;;1477288;40;7112;-62
2021/05/10 01:18:40;;;;;;;;;;;;;;;;;;1475986;40;7027;-64
2021/05/10 01:19:42;;;;;;;;;;;;;;;;;;1474898;40;6992;-62
2021/05/10 01:20:46;;;;;;;;;;;;;;;;;;1474996;40;6996;-62
2021/05/10 01:21:50;;;;;;;;;;;;;;;;;;1477561;40;8095;-60
2021/05/10 01:22:53;;;;;;;;;;;;;;;;;;1477516;40;6999;-61
2021/05/10 01:23:56;;;;;;;;;;;;;;;;;;1478310;40;7040;-61
2021/05/10 01:24:58;;;;;;;;;;;;;;;;;;1478835;40;7011;-63
2021/05/10 01:26:00;;;;;;;;;;;;;;;;;;1478806;40;7000;-61
2021/05/10 01:27:02;;;;;;;;;;;;;;;;;;1478547;40;6992;-61
2021/05/10 01:28:04;;;;;;;;;;;;;;;;;;1478332;40;6992;-60
2021/05/10 01:29:07;;;;;;;;;;;;;;;;;;1478432;40;7939;-63
2021/05/10 01:30:16;;;;;;;;;;;;;;;;;;1478883;40;7183;-64
2021/05/10 01:31:18;;;;;;;;;;;;;;;;;;1478680;40;6991;-59
2021/05/10 01:32:20;;;;;;;;;;;;;;;;;;1479017;40;6999;-61
2021/05/10 01:33:22;;;;;;;;;;;;;;;;;;1478893;40;7032;-61
2021/05/10 01:34:24;;;;;;;;;;;;;;;;;;1478317;40;7022;-62
2021/05/10 01:35:28;;;;;;;;;;;;;;;;;;1478124;40;6999;-62
2021/05/10 01:36:30;;;;;;;;;;;;;;;;;;1478681;40;7892;-62
2021/05/10 01:37:32;;;;;;;;;;;;;;;;;;1479398;40;7000;-63
2021/05/10 01:38:34;;;;;;;;;;;;;;;;;;1479418;40;7027;-60
2021/05/10 01:39:36;;;;;;;;;;;;;;;;;;1479168;40;7007;-61
2021/05/10 01:40:38;;;;;;;;;;;;;;;;;;1479029;40;7031;-60
2021/05/10 01:41:40;;;;;;;;;;;;;;;;;;1478703;40;7027;-62
2021/05/10 01:42:42;;;;;;;;;;;;;;;;;;1478725;40;8862;-60
2021/05/10 01:43:44;;;;;;;;;;;;;;;;;;1479058;40;6999;-62
2021/05/10 01:44:46;;;;;;;;;;;;;;;;;;1476827;40;6991;-61
2021/05/10 01:45:49;;;;;;;;;;;;;;;;;;1475623;40;8831;-61
2021/05/10 01:46:51;;;;;;;;;;;;;;;;;;1475160;40;7035;-60
2021/05/10 01:48:00;;;;;;;;;;;;;;;;;;1474998;40;7053;-60
2021/05/10 01:49:02;;;;;;;;;;;;;;;;;;1474822;40;7027;-61
2021/05/10 01:50:08;;;;;;;;;;;;;;;;;;1478137;40;7203;-61
2021/05/10 01:51:10;;;;;;;;;;;;;;;;;;1478662;40;7088;-61
2021/05/10 01:52:13;;;;;;;;;;;;;;;;;;1478663;40;8806;-61
2021/05/10 01:53:16;;;;;;;;;;;;;;;;;;1479010;40;7000;-61
2021/05/10 01:54:18;;;;;;;;;;;;;;;;;;1478909;40;7008;-61
2021/05/10 01:55:22;;;;;;;;;;;;;;;;;;1478956;40;7000;-62
2021/05/10 01:56:24;;;;;;;;;;;;;;;;;;1479186;40;7015;-59
2021/05/10 01:57:26;;;;;;;;;;;;;;;;;;1474983;40;7894;-61
2021/05/10 01:58:28;;;;;;;;;;;;;;;;;;1478472;40;7885;-61
2021/05/10 01:59:30;;;;;;;;;;;;;;;;;;1478899;40;7170;-61
2021/05/10 02:00:35;;;;;;;;;;;;;;;;;;1478944;40;7405;-61
2021/05/10 02:01:37;;;;;;;;;;;;;;;;;;1479079;40;7995;-60
2021/05/10 02:02:39;;;;;;;;;;;;;;;;;;1478947;40;7992;-61
2021/05/10 02:03:41;;;;;;;;;;;;;;;;;;1478542;40;7871;-61
2021/05/10 02:05:02;;;;;;;;;;;;;;;;;;1479157;40;7933;-62
2021/05/10 02:06:04;;;;;;;;;;;;;;;;;;1478778;40;6991;-61
2021/05/10 02:07:06;;;;;;;;;;;;;;;;;;1478956;40;6991;-63
2021/05/10 02:08:09;;;;;;;;;;;;;;;;;;1478552;40;6991;-62
2021/05/10 02:09:11;;;;;;;;;;;;;;;;;;1478821;40;7008;-61
2021/05/10 02:10:15;;;;;;;;;;;;;;;;;;1478719;40;7181;-61
2021/05/10 02:11:17;;;;;;;;;;;;;;;;;;1478697;40;7132;-62
2021/05/10 02:12:19;;;;;;;;;;;;;;;;;;1478809;40;7955;-61
2021/05/10 02:13:22;;;;;;;;;;;;;;;;;;1479071;40;7916;-62
2021/05/10 02:14:24;;;;;;;;;;;;;;;;;;1479317;40;7990;-61
2021/05/10 02:15:28;;;;;;;;;;;;;;;;;;1479309;40;6992;-61
2021/05/10 02:16:31;;;;;;;;;;;;;;;;;;1478101;40;7900;-61
2021/05/10 02:17:34;;;;;;;;;;;;;;;;;;1476885;40;8251;-60
2021/05/10 02:18:36;;;;;;;;;;;;;;;;;;1477592;40;7466;-64
2021/05/10 02:19:38;;;;;;;;;;;;;;;;;;1474299;40;7055;-61
2021/05/10 02:20:40;;;;;;;;;;;;;;;;;;1474425;40;7036;-62
2021/05/10 02:21:43;;;;;;;;;;;;;;;;;;1477151;40;7106;-62
2021/05/10 02:22:56;;;;;;;;;;;;;;;;;;1475335;40;6992;-62
2021/05/10 02:23:58;;;;;;;;;;;;;;;;;;1474134;40;7001;-60
2021/05/10 02:25:00;;;;;;;;;;;;;;;;;;1474557;40;6992;-60
2021/05/10 02:26:04;;;;;;;;;;;;;;;;;;1474507;40;7016;-61
2021/05/10 02:27:06;;;;;;;;;;;;;;;;;;1474340;40;7871;-60
2021/05/10 02:28:09;;;;;;;;;;;;;;;;;;1474356;40;6999;-61
2021/05/10 02:29:11;;;;;;;;;;;;;;;;;;1474573;40;7035;-61
2021/05/10 02:30:14;;;;;;;;;;;;;;;;;;1474249;40;7000;-62
2021/05/10 02:31:16;;;;;;;;;;;;;;;;;;1474564;40;7055;-61
2021/05/10 02:32:18;;;;;;;;;;;;;;;;;;1474731;40;7003;-61
2021/05/10 02:33:25;;;;;;;;;;;;;;;;;;1474893;40;7001;-63
2021/05/10 02:34:27;;;;;;;;;;;;;;;;;;1478285;40;6991;-62
2021/05/10 02:35:29;;;;;;;;;;;;;;;;;;1478031;40;7953;-61
2021/05/10 02:36:30;;;;;;;;;;;;;;;;;;1478950;40;7008;-60
2021/05/10 02:37:32;;;;;;;;;;;;;;;;;;1479279;40;7027;-61
2021/05/10 02:38:34;;;;;;;;;;;;;;;;;;1479178;40;7003;-60
2021/05/10 02:39:36;;;;;;;;;;;;;;;;;;1478653;40;6999;-61
2021/05/10 02:40:39;;;;;;;;;;;;;;;;;;1478797;40;7027;-62
2021/05/10 02:41:41;;;;;;;;;;;;;;;;;;1478578;40;6992;-61
2021/05/10 02:42:43;;;;;;;;;;;;;;;;;;1478689;40;7958;-61
2021/05/10 02:43:45;;;;;;;;;;;;;;;;;;1478795;40;6991;-60
2021/05/10 02:44:47;;;;;;;;;;;;;;;;;;1478897;40;7019;-61
2021/05/10 02:45:49;;;;;;;;;;;;;;;;;;1479153;40;6999;-63
2021/05/10 02:46:51;;;;;;;;;;;;;;;;;;1478722;40;7027;-62
2021/05/10 02:47:53;;;;;;;;;;;;;;;;;;1478973;40;7035;-61
2021/05/10 02:48:56;;;;;;;;;;;;;;;;;;1478954;40;7905;-61
2021/05/10 02:49:59;;;;;;;;;;;;;;;;;;1478718;40;7079;-61
2021/05/10 02:51:01;;;;;;;;;;;;;;;;;;1478638;40;7000;-61
2021/05/10 02:52:03;;;;;;;;;;;;;;;;;;1478965;40;6988;-60
2021/05/10 02:53:05;;;;;;;;;;;;;;;;;;1474841;40;7115;-62
2021/05/10 02:54:07;;;;;;;;;;;;;;;;;;1476604;40;6999;-60
2021/05/10 02:55:09;;;;;;;;;;;;;;;;;;1478583;40;6991;-61
2021/05/10 02:56:11;;;;;;;;;;;;;;;;;;1478821;40;6992;-61
2021/05/10 02:57:13;;;;;;;;;;;;;;;;;;1478681;40;7113;-60
2021/05/10 02:58:15;;;;;;;;;;;;;;;;;;1478516;40;7008;-61
2021/05/10 02:59:16;;;;;;;;;;;;;;;;;;1478980;40;7924;-61
2021/05/10 03:00:20;;;;;;;;;;;;;;;;;;1474524;40;7088;-61
2021/05/10 03:01:22;;;;;;;;;;;;;;;;;;1474824;40;7139;-60
2021/05/10 03:02:24;;;;;;;;;;;;;;;;;;1475040;40;7814;-62
2021/05/10 03:03:27;;;;;;;;;;;;;;;;;;1474725;40;7079;-61
2021/05/10 03:04:29;;;;;;;;;;;;;;;;;;1474226;40;6999;-61
2021/05/10 03:05:31;;;;;;;;;;;;;;;;;;1474767;40;7031;-61
2021/05/10 03:06:33;;;;;;;;;;;;;;;;;;1474622;40;6991;-61
2021/05/10 03:07:35;;;;;;;;;;;;;;;;;;1474447;40;6992;-61
2021/05/10 03:08:37;;;;;;;;;;;;;;;;;;1474797;40;7132;-63
2021/05/10 03:09:39;;;;;;;;;;;;;;;;;;1474756;40;7023;-61
2021/05/10 03:10:41;;;;;;;;;;;;;;;;;;1474628;40;8015;-62
2021/05/10 03:11:43;;;;;;;;;;;;;;;;;;1474616;40;7003;-62
2021/05/10 03:12:46;;;;;;;;;;;;;;;;;;1474560;40;7216;-61
2021/05/10 03:13:48;;;;;;;;;;;;;;;;;;1474849;40;7040;-63
2021/05/10 03:14:50;;;;;;;;;;;;;;;;;;1474848;40;7887;-61
2021/05/10 03:15:52;;;;;;;;;;;;;;;;;;1474908;40;7463;-60
2021/05/10 03:16:54;;;;;;;;;;;;;;;;;;1474600;40;7001;-61
2021/05/10 03:17:56;;;;;;;;;;;;;;;;;;1474741;40;8333;-60
2021/05/10 03:18:58;;;;;;;;;;;;;;;;;;1474996;40;6999;-61
2021/05/10 03:20:00;;;;;;;;;;;;;;;;;;1478813;40;6991;-61
2021/05/10 03:21:02;;;;;;;;;;;;;;;;;;1475152;40;7032;-60
2021/05/10 03:22:04;;;;;;;;;;;;;;;;;;1478070;40;7182;-62
2021/05/10 03:23:06;;;;;;;;;;;;;;;;;;1475924;40;6992;-60
2021/05/10 03:24:09;;;;;;;;;;;;;;;;;;1474216;40;7909;-62
2021/05/10 03:25:11;;;;;;;;;;;;;;;;;;1474152;40;7007;-62
2021/05/10 03:26:13;;;;;;;;;;;;;;;;;;1474399;40;7886;-61
2021/05/10 03:27:16;;;;;;;;;;;;;;;;;;1474298;40;7868;-62
2021/05/10 03:28:17;;;;;;;;;;;;;;;;;;1474338;40;7031;-62
2021/05/10 03:29:19;;;;;;;;;;;;;;;;;;1478496;40;7845;-60
2021/05/10 03:30:23;;;;;;;;;;;;;;;;;;1478187;40;7128;-61
2021/05/10 03:31:25;;;;;;;;;;;;;;;;;;1474586;40;6995;-61
2021/05/10 03:32:27;;;;;;;;;;;;;;;;;;1478124;40;8131;-63
2021/05/10 03:33:30;;;;;;;;;;;;;;;;;;1478515;40;7058;-61
2021/05/10 03:34:32;;;;;;;;;;;;;;;;;;1478017;40;7918;-60
2021/05/10 03:35:34;;;;;;;;;;;;;;;;;;1478008;40;7031;-61
2021/05/10 03:36:36;;;;;;;;;;;;;;;;;;1475265;40;6991;-60
2021/05/10 03:37:38;;;;;;;;;;;;;;;;;;1475161;40;7288;-62
2021/05/10 03:38:40;;;;;;;;;;;;;;;;;;1475132;40;7011;-61
2021/05/10 03:39:42;;;;;;;;;;;;;;;;;;1475097;40;7121;-61
2021/05/10 03:40:44;;;;;;;;;;;;;;;;;;1475160;40;6983;-60
2021/05/10 03:41:45;;;;;;;;;;;;;;;;;;1475344;40;7970;-60
2021/05/10 03:42:47;;;;;;;;;;;;;;;;;;1475485;40;7039;-61
2021/05/10 03:43:50;;;;;;;;;;;;;;;;;;1474922;40;7012;-60
2021/05/10 03:44:53;;;;;;;;;;;;;;;;;;1475368;40;7028;-61
2021/05/10 03:45:55;;;;;;;;;;;;;;;;;;1476124;40;7891;-61
2021/05/10 03:46:56;;;;;;;;;;;;;;;;;;1475332;40;7005;-60
2021/05/10 03:47:58;;;;;;;;;;;;;;;;;;1475391;40;7959;-61
2021/05/10 03:49:00;;;;;;;;;;;;;;;;;;1478900;40;7493;-62
2021/05/10 03:50:03;;;;;;;;;;;;;;;;;;1479336;40;6996;-61
2021/05/10 03:51:05;;;;;;;;;;;;;;;;;;1479269;40;7963;-63
2021/05/10 03:52:08;;;;;;;;;;;;;;;;;;1479423;40;6991;-60
2021/05/10 03:53:10;;;;;;;;;;;;;;;;;;1479458;40;7965;-59
2021/05/10 03:54:12;;;;;;;;;;;;;;;;;;1479389;40;7008;-61
2021/05/10 03:55:15;;;;;;;;;;;;;;;;;;1475691;40;7004;-62
2021/05/10 03:56:17;;;;;;;;;;;;;;;;;;1478793;40;7104;-62
2021/05/10 03:57:19;;;;;;;;;;;;;;;;;;1482883;40;7000;-62
2021/05/10 03:58:21;;;;;;;;;;;;;;;;;;1482624;40;7962;-61
2021/05/10 03:59:22;;;;;;;;;;;;;;;;;;1479554;40;7880;-60
2021/05/10 04:00:24;;;;;;;;;;;;;;;;;;1479298;40;7211;-62
2021/05/10 04:01:26;;;;;;;;;;;;;;;;;;1479396;40;7036;-61
2021/05/10 04:02:28;;;;;;;;;;;;;;;;;;1475403;40;7054;-61
2021/05/10 04:03:37;;;;;;;;;;;;;;;;;;1475553;40;7130;-60
2021/05/10 04:04:44;;;;;;;;;;;;;;;;;;1475215;40;7055;-59
2021/05/10 04:09:08;;;;;;;;;;;;;;;;;;1478114;40;7086;-62
2021/05/10 04:13:57;;;;;;;;;;;;;;;;;;1479110;40;7917;-61
2021/05/10 04:14:59;;;;;;;;;;;;;;;;;;1479578;40;7004;-60
2021/05/10 04:16:00;;;;;;;;;;;;;;;;;;1479111;40;6999;-61
2021/05/10 04:17:02;;;;;;;;;;;;;;;;;;1478564;40;7003;-61
2021/05/10 04:18:04;;;;;;;;;;;;;;;;;;1475175;40;7195;-64
2021/05/10 04:19:07;;;;;;;;;;;;;;;;;;1476457;40;7113;-64
2021/05/10 04:20:09;;;;;;;;;;;;;;;;;;1479124;40;7927;-59
2021/05/10 04:21:11;;;;;;;;;;;;;;;;;;1478655;40;7004;-63
2021/05/10 04:22:13;;;;;;;;;;;;;;;;;;1477201;40;7020;-61
2021/05/10 04:23:17;;;;;;;;;;;;;;;;;;1475524;40;7114;-62
2021/05/10 04:24:18;;;;;;;;;;;;;;;;;;1474808;40;7195;-61
2021/05/10 04:25:20;;;;;;;;;;;;;;;;;;1474550;40;6991;-63
2021/05/10 04:26:27;;;;;;;;;;;;;;;;;;1474985;40;7104;-61
2021/05/10 04:27:28;;;;;;;;;;;;;;;;;;1474822;40;6999;-62
2021/05/10 04:28:31;;;;;;;;;;;;;;;;;;1474976;40;7118;-60
2021/05/10 04:29:33;;;;;;;;;;;;;;;;;;1478409;40;6996;-59
2021/05/10 04:30:35;;;;;;;;;;;;;;;;;;1479326;40;7954;-62
2021/05/10 04:31:37;;;;;;;;;;;;;;;;;;1478821;40;7935;-59
2021/05/10 04:32:39;;;;;;;;;;;;;;;;;;1479216;40;7113;-61
2021/05/10 04:33:41;;;;;;;;;;;;;;;;;;1479110;40;7171;-61
2021/05/10 04:34:47;;;;;;;;;;;;;;;;;;1478704;40;6999;-60
2021/05/10 04:35:49;;;;;;;;;;;;;;;;;;1474531;40;7075;-63
2021/05/10 04:36:51;;;;;;;;;;;;;;;;;;1475390;40;7206;-62
2021/05/10 04:37:53;;;;;;;;;;;;;;;;;;1478792;40;7408;-60
2021/05/10 04:38:55;;;;;;;;;;;;;;;;;;1478701;40;6999;-61
2021/05/10 04:39:57;;;;;;;;;;;;;;;;;;1479048;40;7922;-61
2021/05/10 04:40:59;;;;;;;;;;;;;;;;;;1479156;40;7885;-61
2021/05/10 04:42:01;;;;;;;;;;;;;;;;;;1478989;40;6996;-60
2021/05/10 04:43:04;;;;;;;;;;;;;;;;;;1478949;40;7044;-61
2021/05/10 04:44:06;;;;;;;;;;;;;;;;;;1479150;40;6991;-60
2021/05/10 04:45:08;;;;;;;;;;;;;;;;;;1476330;40;6992;-60
2021/05/10 04:46:11;;;;;;;;;;;;;;;;;;1477298;40;7039;-61
2021/05/10 04:47:12;;;;;;;;;;;;;;;;;;1476686;40;8080;-61
2021/05/10 04:48:14;;;;;;;;;;;;;;;;;;1478838;40;8819;-62
2021/05/10 04:49:17;;;;;;;;;;;;;;;;;;1479063;40;6995;-61
2021/05/10 04:50:19;;;;;;;;;;;;;;;;;;1478995;40;7000;-61
2021/05/10 04:51:21;;;;;;;;;;;;;;;;;;1479589;40;6999;-60
2021/05/10 04:52:23;;;;;;;;;;;;;;;;;;1475869;40;7947;-61
2021/05/10 04:53:25;;;;;;;;;;;;;;;;;;1475753;40;7019;-62
2021/05/10 04:54:27;;;;;;;;;;;;;;;;;;1479170;40;7127;-61
2021/05/10 04:55:29;;;;;;;;;;;;;;;;;;1478944;40;7027;-61
2021/05/10 04:56:32;;;;;;;;;;;;;;;;;;1478897;40;7042;-61
2021/05/10 04:57:34;;;;;;;;;;;;;;;;;;1479089;40;7001;-62
2021/05/10 04:58:36;;;;;;;;;;;;;;;;;;1479099;40;7000;-61
2021/05/10 04:59:37;;;;;;;;;;;;;;;;;;1479528;40;7007;-61
2021/05/10 05:00:40;;;;;;;;;;;;;;;;;;1478337;40;7845;-60
2021/05/10 05:01:43;;;;;;;;;;;;;;;;;;1478955;40;8281;-62
2021/05/10 05:02:46;;;;;;;;;;;;;;;;;;1478870;40;8394;-62
2021/05/10 05:03:48;;;;;;;;;;;;;;;;;;1478982;40;6992;-61
2021/05/10 05:04:49;;;;;;;;;;;;;;;;;;1478470;40;8014;-62
2021/05/10 05:05:51;;;;;;;;;;;;;;;;;;1478574;40;6991;-61
2021/05/10 05:06:53;;;;;;;;;;;;;;;;;;1478432;40;7027;-62
2021/05/10 05:07:55;;;;;;;;;;;;;;;;;;1475156;40;7187;-61
2021/05/10 05:08:57;;;;;;;;;;;;;;;;;;1475605;40;7143;-61
2021/05/10 05:09:59;;;;;;;;;;;;;;;;;;1475061;40;7915;-61
2021/05/10 05:11:02;;;;;;;;;;;;;;;;;;1474829;40;7039;-62
2021/05/10 05:12:04;;;;;;;;;;;;;;;;;;1475171;40;7023;-62
2021/05/10 05:13:06;;;;;;;;;;;;;;;;;;1475353;40;7111;-62
2021/05/10 05:14:08;;;;;;;;;;;;;;;;;;1475569;40;7027;-62
2021/05/10 05:15:10;;;;;;;;;;;;;;;;;;1475584;40;7118;-61
2021/05/10 05:16:12;;;;;;;;;;;;;;;;;;1474969;40;7920;-60
2021/05/10 05:17:14;;;;;;;;;;;;;;;;;;1475074;40;7023;-63
2021/05/10 05:18:16;;;;;;;;;;;;;;;;;;1476253;40;6999;-61
2021/05/10 05:19:18;;;;;;;;;;;;;;;;;;1478564;40;8139;-62
2021/05/10 05:20:20;;;;;;;;;;;;;;;;;;1478558;40;7250;-60
2021/05/10 05:21:22;;;;;;;;;;;;;;;;;;1477229;40;7133;-61
2021/05/10 05:22:24;;;;;;;;;;;;;;;;;;1474970;40;6999;-60
2021/05/10 05:23:28;;;;;;;;;;;;;;;;;;1478192;40;6999;-62
2021/05/10 05:24:30;;;;;;;;;;;;;;;;;;1478806;40;7001;-61
2021/05/10 05:25:32;;;;;;;;;;;;;;;;;;1479133;40;6992;-60
2021/05/10 05:26:34;;;;;;;;;;;;;;;;;;1475291;40;7851;-61
2021/05/10 05:27:36;;;;;;;;;;;;;;;;;;1475794;40;7008;-62
2021/05/10 05:28:38;;;;;;;;;;;;;;;;;;1479000;40;6988;-60
2021/05/10 05:29:40;;;;;;;;;;;;;;;;;;1478565;40;7921;-62
2021/05/10 05:30:42;;;;;;;;;;;;;;;;;;1479333;40;7226;-60
2021/05/10 05:31:43;;;;;;;;;;;;;;;;;;1479228;40;7917;-60
2021/05/10 05:32:46;;;;;;;;;;;;;;;;;;1475608;40;7024;-61
2021/05/10 05:33:47;;;;;;;;;;;;;;;;;;1476825;40;6999;-62
2021/05/10 05:35:04;;;;;;;;;;;;;;;;;;1478848;40;7019;-60
2021/05/10 05:36:06;;;;;;;;;;;;;;;;;;1478747;40;7033;-60
2021/05/10 05:37:08;;;;;;;;;;;;;;;;;;1479130;40;8011;-61
2021/05/10 05:38:11;;;;;;;;;;;;;;;;;;1478986;40;7044;-62
2021/05/10 05:39:13;;;;;;;;;;;;;;;;;;1479250;40;6991;-61
2021/05/10 05:40:15;;;;;;;;;;;;;;;;;;1479139;40;7223;-62
2021/05/10 05:41:17;;;;;;;;;;;;;;;;;;1479792;40;7015;-62
2021/05/10 05:42:20;;;;;;;;;;;;;;;;;;1479494;40;7051;-62
2021/05/10 05:43:22;;;;;;;;;;;;;;;;;;1479164;40;7000;-61
2021/05/10 05:44:23;;;;;;;;;;;;;;;;;;1478913;40;6992;-62
2021/05/10 05:45:26;;;;;;;;;;;;;;;;;;1479359;40;7035;-62
2021/05/10 05:46:30;;;;;;;;;;;;;;;;;;1475693;40;7164;-62
2021/05/10 05:47:32;;;;;;;;;;;;;;;;;;1474970;40;7035;-61
2021/05/10 05:48:34;;;;;;;;;;;;;;;;;;1474891;40;7031;-61
2021/05/10 05:49:36;;;;;;;;;;;;;;;;;;1475272;40;7911;-61
2021/05/10 05:50:39;;;;;;;;;;;;;;;;;;1475165;40;7008;-61
2021/05/10 05:51:44;;;;;;;;;;;;;;;;;;1476062;40;7015;-62
2021/05/10 05:52:46;;;;;;;;;;;;;;;;;;1475170;40;7909;-65
2021/05/10 05:53:53;;;;;;;;;;;;;;;;;;1475939;40;7047;-61
2021/05/10 05:54:56;;;;;;;;;;;;;;;;;;1474796;40;7114;-65
2021/05/10 05:55:59;;;;;;;;;;;;;;;;;;1475068;40;7000;-62
2021/05/10 05:57:01;;;;;;;;;;;;;;;;;;1475128;40;6999;-63
2021/05/10 05:58:04;;;;;;;;;;;;;;;;;;1475193;40;7214;-61
2021/05/10 05:59:06;;;;;;;;;;;;;;;;;;1478451;40;6999;-60
2021/05/10 06:00:08;;;;;;;;;;;;;;;;;;1479214;40;6991;-64
2021/05/10 06:01:10;;;;;;;;;;;;;;;;;;1478820;40;7044;-62
2021/05/10 06:02:12;;;;;;;;;;;;;;;;;;1479185;40;7187;-62
2021/05/10 06:03:15;;;;;;;;;;;;;;;;;;1479069;40;7007;-61
2021/05/10 06:04:17;;;;;;;;;;;;;;;;;;1479140;40;6996;-61
2021/05/10 06:05:19;;;;;;;;;;;;;;;;;;1475723;40;7039;-63
2021/05/10 06:06:25;;;;;;;;;;;;;;;;;;1475270;40;7258;-61
2021/05/10 06:07:27;;;;;;;;;;;;;;;;;;1474940;40;7000;-61
2021/05/10 06:08:29;;;;;;;;;;;;;;;;;;1475069;40;6991;-60
2021/05/10 06:09:31;;;;;;;;;;;;;;;;;;1474772;40;7043;-61
2021/05/10 06:10:33;;;;;;;;;;;;;;;;;;1474963;40;6992;-62
2021/05/10 06:11:35;;;;;;;;;;;;;;;;;;1474935;40;7027;-63
2021/05/10 06:12:37;;;;;;;;;;;;;;;;;;1475012;40;6999;-61
2021/05/10 06:13:39;;;;;;;;;;;;;;;;;;1474960;40;7236;-62
2021/05/10 06:14:41;;;;;;;;;;;;;;;;;;1482186;40;7259;-63
2021/05/10 06:15:43;;;;;;;;;;;;;;;;;;1482467;40;7035;-62
2021/05/10 06:16:45;;;;;;;;;;;;;;;;;;1478679;40;6999;-64
2021/05/10 06:17:48;;;;;;;;;;;;;;;;;;1476641;40;7040;-63
2021/05/10 06:18:50;;;;;;;;;;;;;;;;;;1475090;40;7188;-62
2021/05/10 06:19:52;;;;;;;;;;;;;;;;;;1478791;40;7222;-63
2021/05/10 06:20:54;;;;;;;;;;;;;;;;;;1479005;40;6992;-62
2021/05/10 06:21:56;;;;;;;;;;;;;;;;;;1474830;40;8034;-62
2021/05/10 06:22:58;;;;;;;;;;;;;;;;;;1474529;40;7007;-62
2021/05/10 06:24:00;;;;;;;;;;;;;;;;;;1474532;40;7000;-62
2021/05/10 06:25:03;;;;;;;;;;;;;;;;;;1477008;40;7000;-62
2021/05/10 06:26:06;;;;;;;;;;;;;;;;;;1478789;40;6991;-61
2021/05/10 06:27:08;;;;;;;;;;;;;;;;;;1478772;40;7909;-61
2021/05/10 06:28:10;;;;;;;;;;;;;;;;;;1478601;40;7194;-63
2021/05/10 06:29:12;;;;;;;;;;;;;;;;;;1475137;40;7995;-61
2021/05/10 06:30:14;;;;;;;;;;;;;;;;;;1474481;40;7040;-65
2021/05/10 06:31:16;;;;;;;;;;;;;;;;;;1477704;40;7027;-62
2021/05/10 06:32:18;;;;;;;;;;;;;;;;;;1479036;40;7217;-63
2021/05/10 06:33:22;;;;;;;;;;;;;;;;;;1476279;40;7008;-61
2021/05/10 06:34:24;;;;;;;;;;;;;;;;;;1478381;40;7005;-60
2021/05/10 06:35:26;;;;;;;;;;;;;;;;;;1478065;40;7031;-62
2021/05/10 06:36:28;;;;;;;;;;;;;;;;;;1478985;40;7900;-61
2021/05/10 06:37:30;;;;;;;;;;;;;;;;;;1478859;40;7020;-61
2021/05/10 06:38:33;;;;;;;;;;;;;;;;;;1478728;40;7187;-63
2021/05/10 06:39:35;;;;;;;;;;;;;;;;;;1478963;40;7008;-61
2021/05/10 06:40:37;;;;;;;;;;;;;;;;;;1478833;40;7035;-62
2021/05/10 06:41:39;;;;;;;;;;;;;;;;;;1479004;40;6991;-61
2021/05/10 06:42:41;;;;;;;;;;;;;;;;;;1478666;40;6992;-63
2021/05/10 06:43:43;;;;;;;;;;;;;;;;;;1479302;40;7000;-63
2021/05/10 06:44:45;;;;;;;;;;;;;;;;;;1475237;40;6999;-61
2021/05/10 06:45:47;;;;;;;;;;;;;;;;;;1475637;40;6991;-64
2021/05/10 06:46:49;;;;;;;;;;;;;;;;;;1478535;40;7000;-64
2021/05/10 06:47:51;;;;;;;;;;;;;;;;;;1478342;40;7023;-61
2021/05/10 06:48:53;;;;;;;;;;;;;;;;;;1474806;40;7027;-63
2021/05/10 06:49:55;;;;;;;;;;;;;;;;;;1475089;40;6992;-63
2021/05/10 06:50:57;;;;;;;;;;;;;;;;;;1475053;40;7873;-61
2021/05/10 06:51:59;;;;;;;;;;;;;;;;;;1475205;40;6992;-62
2021/05/10 06:53:02;;;;;;;;;;;;;;;;;;1475004;40;7027;-61
2021/05/10 06:54:03;;;;;;;;;;;;;;;;;;1474831;40;7938;-61
2021/05/10 06:55:06;;;;;;;;;;;;;;;;;;1474488;40;7024;-63
2021/05/10 06:56:08;;;;;;;;;;;;;;;;;;1474708;40;8327;-63
2021/05/10 06:57:10;;;;;;;;;;;;;;;;;;1474703;40;7000;-61
2021/05/10 06:58:12;;;;;;;;;;;;;;;;;;1474932;40;6996;-63
2021/05/10 06:59:14;;;;;;;;;;;;;;;;;;1476385;40;7112;-63
2021/05/10 07:00:16;;;;;;;;;;;;;;;;;;1479453;40;7021;-63
2021/05/10 07:01:18;;;;;;;;;;;;;;;;;;1479335;40;7838;-63
2021/05/10 07:02:22;;;;;;;;;;;;;;;;;;1478908;40;7981;-62
2021/05/10 07:03:25;;;;;;;;;;;;;;;;;;1479140;40;7107;-62
2021/05/10 07:04:27;;;;;;;;;;;;;;;;;;1479169;40;6995;-61
2021/05/10 07:05:29;;;;;;;;;;;;;;;;;;1476650;40;7027;-65
2021/05/10 07:06:31;;;;;;;;;;;;;;;;;;1478735;40;7040;-65
2021/05/10 07:07:34;;;;;;;;;;;;;;;;;;1478825;40;7040;-63
2021/05/10 07:08:35;;;;;;;;;;;;;;;;;;1482538;40;7000;-62
2021/05/10 07:09:38;;;;;;;;;;;;;;;;;;1482486;40;7987;-63
2021/05/10 07:10:44;;;;;;;;;;;;;;;;;;1479639;40;7935;-60
2021/05/10 07:11:46;;;;;;;;;;;;;;;;;;1479527;40;7016;-63
2021/05/10 07:12:48;;;;;;;;;;;;;;;;;;1479894;40;7899;-61
2021/05/10 07:13:50;;;;;;;;;;;;;;;;;;1475444;40;7211;-62
2021/05/10 07:14:52;;;;;;;;;;;;;;;;;;1475668;40;7932;-61
2021/05/10 07:15:54;;;;;;;;;;;;;;;;;;1475707;40;7893;-62
2021/05/10 07:16:57;;;;;;;;;;;;;;;;;;1475217;40;6999;-62
2021/05/10 07:18:06;;;;;;;;;;;;;;;;;;1475754;40;7003;-63
2021/05/10 07:19:09;;;;;;;;;;;;;;;;;;1477167;40;7059;-64
2021/05/10 07:20:11;;;;;;;;;;;;;;;;;;1479130;40;7129;-65
2021/05/10 07:21:15;;;;;;;;;;;;;;;;;;1478087;40;9423;-61